sensor_id;sensor_type;location;lat;lon;timestamp;P1;durP1;ratioP1;P2;durP2;ratioP2
67715;SDS011;54508;43.238;25.306;2022-11-20T00:02:14;8.17;;;6.73;;
67715;SDS011;54508;43.238;25.306;2022-11-20T00:04:40;10.27;;;6.83;;
67715;SDS011;54508;43.238;25.306;2022-11-20T00:07:05;8.60;;;5.90;;
67715;SDS011;54508;43.238;25.306;2022-11-20T00:09:31;7.73;;;6.17;;
67715;SDS011;54508;43.238;25.306;2022-11-20T00:11:56;9.25;;;6.47;;
67715;SDS011;54508;43.238;25.306;2022-11-20T00:14:21;9.47;;;6.50;;
67715;SDS011;54508;43.238;25.306;2022-11-20T00:16:47;8.27;;;6.53;;
67715;SDS011;54508;43.238;25.306;2022-11-20T00:19:12;9.23;;;6.77;;
67715;SDS011;54508;43.238;25.306;2022-11-20T00:21:38;8.23;;;5.80;;
67715;SDS011;54508;43.238;25.306;2022-11-20T00:24:03;7.45;;;5.97;;
67715;SDS011;54508;43.238;25.306;2022-11-20T00:26:29;8.33;;;5.93;;
67715;SDS011;54508;43.238;25.306;2022-11-20T00:28:58;8.05;;;5.93;;
67715;SDS011;54508;43.238;25.306;2022-11-20T00:31:25;8.05;;;5.90;;
67715;SDS011;54508;43.238;25.306;2022-11-20T00:33:51;7.63;;;6.38;;
67715;SDS011;54508;43.238;25.306;2022-11-20T00:36:17;8.32;;;6.40;;
67715;SDS011;54508;43.238;25.306;2022-11-20T00:38:46;8.67;;;5.63;;
67715;SDS011;54508;43.238;25.306;2022-11-20T00:41:13;7.63;;;6.57;;
67715;SDS011;54508;43.238;25.306;2022-11-20T00:43:40;7.20;;;6.00;;
67715;SDS011;54508;43.238;25.306;2022-11-20T00:46:10;7.88;;;6.13;;
67715;SDS011;54508;43.238;25.306;2022-11-20T00:48:38;6.88;;;5.35;;
67715;SDS011;54508;43.238;25.306;2022-11-20T00:51:03;8.63;;;6.15;;
67715;SDS011;54508;43.238;25.306;2022-11-20T00:53:29;8.30;;;6.23;;
67715;SDS011;54508;43.238;25.306;2022-11-20T00:55:56;7.50;;;5.47;;
67715;SDS011;54508;43.238;25.306;2022-11-20T00:58:33;7.28;;;5.78;;
67715;SDS011;54508;43.238;25.306;2022-11-20T01:01:21;7.70;;;5.30;;
67715;SDS011;54508;43.238;25.306;2022-11-20T01:03:49;8.43;;;6.38;;
67715;SDS011;54508;43.238;25.306;2022-11-20T01:06:20;7.40;;;5.45;;
67715;SDS011;54508;43.238;25.306;2022-11-20T01:08:47;9.75;;;6.20;;
67715;SDS011;54508;43.238;25.306;2022-11-20T01:11:14;7.57;;;5.80;;
67715;SDS011;54508;43.238;25.306;2022-11-20T01:13:41;7.95;;;5.60;;
67715;SDS011;54508;43.238;25.306;2022-11-20T01:16:11;7.35;;;5.47;;
67715;SDS011;54508;43.238;25.306;2022-11-20T01:18:39;6.70;;;5.45;;
67715;SDS011;54508;43.238;25.306;2022-11-20T01:21:07;6.57;;;5.32;;
67715;SDS011;54508;43.238;25.306;2022-11-20T01:23:34;8.27;;;6.07;;
67715;SDS011;54508;43.238;25.306;2022-11-20T01:26:02;7.80;;;5.68;;
67715;SDS011;54508;43.238;25.306;2022-11-20T01:28:30;7.35;;;5.85;;
67715;SDS011;54508;43.238;25.306;2022-11-20T01:30:55;7.32;;;5.45;;
67715;SDS011;54508;43.238;25.306;2022-11-20T01:33:21;7.72;;;5.68;;
67715;SDS011;54508;43.238;25.306;2022-11-20T01:35:47;7.93;;;5.90;;
67715;SDS011;54508;43.238;25.306;2022-11-20T01:38:12;6.83;;;5.33;;
67715;SDS011;54508;43.238;25.306;2022-11-20T01:40:38;7.28;;;5.15;;
67715;SDS011;54508;43.238;25.306;2022-11-20T01:43:19;6.00;;;5.20;;
67715;SDS011;54508;43.238;25.306;2022-11-20T01:51:46;8.23;;;5.45;;
67715;SDS011;54508;43.238;25.306;2022-11-20T01:54:16;7.90;;;5.20;;
67715;SDS011;54508;43.238;25.306;2022-11-20T01:56:45;6.82;;;5.28;;
67715;SDS011;54508;43.238;25.306;2022-11-20T01:59:12;7.25;;;5.18;;
67715;SDS011;54508;43.238;25.306;2022-11-20T02:01:39;6.75;;;4.78;;
67715;SDS011;54508;43.238;25.306;2022-11-20T02:04:04;6.20;;;4.95;;
67715;SDS011;54508;43.238;25.306;2022-11-20T02:06:35;7.93;;;5.20;;
67715;SDS011;54508;43.238;25.306;2022-11-20T02:09:06;6.35;;;5.30;;
67715;SDS011;54508;43.238;25.306;2022-11-20T02:11:31;7.63;;;5.27;;
67715;SDS011;54508;43.238;25.306;2022-11-20T02:13:57;6.93;;;5.35;;
67715;SDS011;54508;43.238;25.306;2022-11-20T02:16:25;6.30;;;5.13;;
67715;SDS011;54508;43.238;25.306;2022-11-20T02:18:51;8.43;;;5.30;;
67715;SDS011;54508;43.238;25.306;2022-11-20T02:21:21;6.30;;;4.70;;
67715;SDS011;54508;43.238;25.306;2022-11-20T02:29:26;9.07;;;5.22;;
67715;SDS011;54508;43.238;25.306;2022-11-20T02:31:53;5.90;;;4.87;;
67715;SDS011;54508;43.238;25.306;2022-11-20T02:34:20;7.65;;;5.20;;
67715;SDS011;54508;43.238;25.306;2022-11-20T02:36:45;6.77;;;5.53;;
67715;SDS011;54508;43.238;25.306;2022-11-20T02:39:11;8.07;;;4.95;;
67715;SDS011;54508;43.238;25.306;2022-11-20T02:41:38;6.55;;;5.00;;
67715;SDS011;54508;43.238;25.306;2022-11-20T02:44:04;6.67;;;4.93;;
67715;SDS011;54508;43.238;25.306;2022-11-20T02:46:30;6.00;;;4.68;;
67715;SDS011;54508;43.238;25.306;2022-11-20T02:48:56;7.22;;;5.00;;
67715;SDS011;54508;43.238;25.306;2022-11-20T02:51:22;6.50;;;4.93;;
67715;SDS011;54508;43.238;25.306;2022-11-20T02:53:48;5.90;;;4.50;;
67715;SDS011;54508;43.238;25.306;2022-11-20T02:56:13;6.97;;;5.00;;
67715;SDS011;54508;43.238;25.306;2022-11-20T02:58:39;6.27;;;4.97;;
67715;SDS011;54508;43.238;25.306;2022-11-20T03:01:04;6.13;;;4.97;;
67715;SDS011;54508;43.238;25.306;2022-11-20T03:03:30;6.17;;;4.67;;
67715;SDS011;54508;43.238;25.306;2022-11-20T03:05:55;5.72;;;4.72;;
67715;SDS011;54508;43.238;25.306;2022-11-20T03:08:23;5.60;;;4.82;;
67715;SDS011;54508;43.238;25.306;2022-11-20T03:10:49;7.87;;;5.20;;
67715;SDS011;54508;43.238;25.306;2022-11-20T03:13:14;6.45;;;4.70;;
67715;SDS011;54508;43.238;25.306;2022-11-20T03:15:40;8.00;;;5.30;;
67715;SDS011;54508;43.238;25.306;2022-11-20T03:18:05;6.70;;;5.10;;
67715;SDS011;54508;43.238;25.306;2022-11-20T03:20:32;7.50;;;5.40;;
67715;SDS011;54508;43.238;25.306;2022-11-20T03:22:58;6.13;;;4.63;;
67715;SDS011;54508;43.238;25.306;2022-11-20T03:25:23;6.90;;;4.93;;
67715;SDS011;54508;43.238;25.306;2022-11-20T03:27:49;6.68;;;5.03;;
67715;SDS011;54508;43.238;25.306;2022-11-20T03:30:15;6.38;;;4.97;;
67715;SDS011;54508;43.238;25.306;2022-11-20T03:32:40;6.50;;;4.60;;
67715;SDS011;54508;43.238;25.306;2022-11-20T03:35:06;6.60;;;4.87;;
67715;SDS011;54508;43.238;25.306;2022-11-20T03:37:32;8.80;;;5.20;;
67715;SDS011;54508;43.238;25.306;2022-11-20T03:39:57;8.13;;;4.83;;
67715;SDS011;54508;43.238;25.306;2022-11-20T03:42:23;6.50;;;4.67;;
67715;SDS011;54508;43.238;25.306;2022-11-20T03:45:07;7.25;;;4.97;;
67715;SDS011;54508;43.238;25.306;2022-11-20T03:47:33;7.07;;;4.70;;
67715;SDS011;54508;43.238;25.306;2022-11-20T03:49:58;9.33;;;4.67;;
67715;SDS011;54508;43.238;25.306;2022-11-20T03:52:24;5.80;;;4.73;;
67715;SDS011;54508;43.238;25.306;2022-11-20T03:54:49;6.15;;;4.80;;
67715;SDS011;54508;43.238;25.306;2022-11-20T03:57:15;6.33;;;4.60;;
67715;SDS011;54508;43.238;25.306;2022-11-20T03:59:40;5.67;;;4.70;;
67715;SDS011;54508;43.238;25.306;2022-11-20T04:02:05;7.03;;;4.67;;
67715;SDS011;54508;43.238;25.306;2022-11-20T04:04:31;5.10;;;4.57;;
67715;SDS011;54508;43.238;25.306;2022-11-20T04:06:56;6.07;;;5.10;;
67715;SDS011;54508;43.238;25.306;2022-11-20T04:09:22;5.97;;;4.70;;
67715;SDS011;54508;43.238;25.306;2022-11-20T04:11:47;6.20;;;4.70;;
67715;SDS011;54508;43.238;25.306;2022-11-20T04:14:14;6.00;;;4.80;;
67715;SDS011;54508;43.238;25.306;2022-11-20T04:16:40;6.07;;;4.83;;
67715;SDS011;54508;43.238;25.306;2022-11-20T04:19:06;8.07;;;4.70;;
67715;SDS011;54508;43.238;25.306;2022-11-20T04:21:35;7.10;;;4.25;;
67715;SDS011;54508;43.238;25.306;2022-11-20T04:24:01;8.17;;;4.80;;
67715;SDS011;54508;43.238;25.306;2022-11-20T04:26:27;5.80;;;4.88;;
67715;SDS011;54508;43.238;25.306;2022-11-20T04:28:53;7.43;;;4.87;;
67715;SDS011;54508;43.238;25.306;2022-11-20T04:31:26;5.53;;;4.30;;
67715;SDS011;54508;43.238;25.306;2022-11-20T04:33:52;6.57;;;4.68;;
67715;SDS011;54508;43.238;25.306;2022-11-20T04:36:18;5.78;;;4.03;;
67715;SDS011;54508;43.238;25.306;2022-11-20T04:38:44;6.85;;;5.15;;
67715;SDS011;54508;43.238;25.306;2022-11-20T04:41:17;5.90;;;4.57;;
67715;SDS011;54508;43.238;25.306;2022-11-20T04:43:47;5.65;;;4.47;;
67715;SDS011;54508;43.238;25.306;2022-11-20T04:46:13;6.43;;;5.10;;
67715;SDS011;54508;43.238;25.306;2022-11-20T04:48:39;5.47;;;4.37;;
67715;SDS011;54508;43.238;25.306;2022-11-20T04:51:04;7.00;;;4.90;;
67715;SDS011;54508;43.238;25.306;2022-11-20T04:53:30;6.22;;;4.53;;
67715;SDS011;54508;43.238;25.306;2022-11-20T04:56:02;9.10;;;4.80;;
67715;SDS011;54508;43.238;25.306;2022-11-20T04:58:28;6.32;;;4.70;;
67715;SDS011;54508;43.238;25.306;2022-11-20T05:01:00;6.83;;;4.63;;
67715;SDS011;54508;43.238;25.306;2022-11-20T05:03:29;6.18;;;4.60;;
67715;SDS011;54508;43.238;25.306;2022-11-20T05:05:55;6.05;;;4.28;;
67715;SDS011;54508;43.238;25.306;2022-11-20T05:08:21;5.67;;;4.10;;
67715;SDS011;54508;43.238;25.306;2022-11-20T05:10:47;6.60;;;4.53;;
67715;SDS011;54508;43.238;25.306;2022-11-20T05:13:12;6.20;;;4.68;;
67715;SDS011;54508;43.238;25.306;2022-11-20T05:15:37;5.53;;;4.30;;
67715;SDS011;54508;43.238;25.306;2022-11-20T05:18:03;5.87;;;4.47;;
67715;SDS011;54508;43.238;25.306;2022-11-20T05:20:28;5.82;;;4.50;;
67715;SDS011;54508;43.238;25.306;2022-11-20T05:22:57;5.20;;;4.70;;
67715;SDS011;54508;43.238;25.306;2022-11-20T05:25:22;7.18;;;4.80;;
67715;SDS011;54508;43.238;25.306;2022-11-20T05:27:48;6.83;;;4.60;;
67715;SDS011;54508;43.238;25.306;2022-11-20T05:30:13;6.30;;;4.67;;
67715;SDS011;54508;43.238;25.306;2022-11-20T05:32:39;5.90;;;4.97;;
67715;SDS011;54508;43.238;25.306;2022-11-20T05:35:05;6.87;;;4.60;;
67715;SDS011;54508;43.238;25.306;2022-11-20T05:37:30;6.20;;;4.55;;
67715;SDS011;54508;43.238;25.306;2022-11-20T05:39:56;6.23;;;4.40;;
67715;SDS011;54508;43.238;25.306;2022-11-20T05:42:21;5.33;;;4.73;;
67715;SDS011;54508;43.238;25.306;2022-11-20T05:44:56;6.85;;;4.50;;
67715;SDS011;54508;43.238;25.306;2022-11-20T05:47:22;5.95;;;4.72;;
67715;SDS011;54508;43.238;25.306;2022-11-20T05:49:48;6.43;;;4.80;;
67715;SDS011;54508;43.238;25.306;2022-11-20T05:52:13;5.90;;;4.83;;
67715;SDS011;54508;43.238;25.306;2022-11-20T05:54:39;6.10;;;5.03;;
67715;SDS011;54508;43.238;25.306;2022-11-20T05:57:04;6.20;;;4.82;;
67715;SDS011;54508;43.238;25.306;2022-11-20T05:59:30;6.47;;;4.95;;
67715;SDS011;54508;43.238;25.306;2022-11-20T06:01:55;7.20;;;5.10;;
67715;SDS011;54508;43.238;25.306;2022-11-20T06:04:20;6.97;;;5.10;;
67715;SDS011;54508;43.238;25.306;2022-11-20T06:06:46;5.87;;;4.83;;
67715;SDS011;54508;43.238;25.306;2022-11-20T06:09:11;6.50;;;4.82;;
67715;SDS011;54508;43.238;25.306;2022-11-20T06:11:37;7.03;;;5.07;;
67715;SDS011;54508;43.238;25.306;2022-11-20T06:14:02;9.43;;;5.30;;
67715;SDS011;54508;43.238;25.306;2022-11-20T06:16:28;8.07;;;5.40;;
67715;SDS011;54508;43.238;25.306;2022-11-20T06:18:53;6.40;;;5.70;;
67715;SDS011;54508;43.238;25.306;2022-11-20T06:21:20;6.03;;;4.83;;
67715;SDS011;54508;43.238;25.306;2022-11-20T06:23:46;7.43;;;4.97;;
67715;SDS011;54508;43.238;25.306;2022-11-20T06:26:13;6.50;;;5.33;;
67715;SDS011;54508;43.238;25.306;2022-11-20T06:28:39;7.32;;;5.53;;
67715;SDS011;54508;43.238;25.306;2022-11-20T06:31:05;8.90;;;5.17;;
67715;SDS011;54508;43.238;25.306;2022-11-20T06:33:31;7.18;;;5.18;;
67715;SDS011;54508;43.238;25.306;2022-11-20T06:35:57;8.73;;;5.73;;
67715;SDS011;54508;43.238;25.306;2022-11-20T06:38:26;7.25;;;5.63;;
67715;SDS011;54508;43.238;25.306;2022-11-20T06:40:51;7.47;;;5.10;;
67715;SDS011;54508;43.238;25.306;2022-11-20T06:43:17;8.27;;;6.53;;
67715;SDS011;54508;43.238;25.306;2022-11-20T06:45:42;9.53;;;5.90;;
67715;SDS011;54508;43.238;25.306;2022-11-20T06:48:08;8.65;;;5.50;;
67715;SDS011;54508;43.238;25.306;2022-11-20T06:50:35;7.90;;;5.95;;
67715;SDS011;54508;43.238;25.306;2022-11-20T06:53:02;10.52;;;5.93;;
67715;SDS011;54508;43.238;25.306;2022-11-20T06:55:28;7.95;;;5.80;;
67715;SDS011;54508;43.238;25.306;2022-11-20T06:57:54;8.48;;;6.05;;
67715;SDS011;54508;43.238;25.306;2022-11-20T07:00:20;8.67;;;6.17;;
67715;SDS011;54508;43.238;25.306;2022-11-20T07:02:45;7.43;;;6.03;;
67715;SDS011;54508;43.238;25.306;2022-11-20T07:05:10;8.87;;;6.33;;
67715;SDS011;54508;43.238;25.306;2022-11-20T07:07:36;8.03;;;6.23;;
67715;SDS011;54508;43.238;25.306;2022-11-20T07:10:01;9.27;;;6.40;;
67715;SDS011;54508;43.238;25.306;2022-11-20T07:12:27;8.03;;;5.80;;
67715;SDS011;54508;43.238;25.306;2022-11-20T07:14:52;9.20;;;5.60;;
67715;SDS011;54508;43.238;25.306;2022-11-20T07:17:17;8.67;;;5.87;;
67715;SDS011;54508;43.238;25.306;2022-11-20T07:19:43;8.77;;;6.78;;
67715;SDS011;54508;43.238;25.306;2022-11-20T07:22:08;11.45;;;6.93;;
67715;SDS011;54508;43.238;25.306;2022-11-20T07:24:34;10.50;;;6.20;;
67715;SDS011;54508;43.238;25.306;2022-11-20T07:26:59;10.80;;;6.90;;
67715;SDS011;54508;43.238;25.306;2022-11-20T07:29:25;7.82;;;5.78;;
67715;SDS011;54508;43.238;25.306;2022-11-20T07:31:51;10.13;;;6.93;;
67715;SDS011;54508;43.238;25.306;2022-11-20T07:34:16;11.93;;;6.53;;
67715;SDS011;54508;43.238;25.306;2022-11-20T07:36:41;11.40;;;6.90;;
67715;SDS011;54508;43.238;25.306;2022-11-20T07:39:07;10.60;;;7.15;;
67715;SDS011;54508;43.238;25.306;2022-11-20T07:41:32;9.07;;;6.17;;
67715;SDS011;54508;43.238;25.306;2022-11-20T07:43:58;10.57;;;6.53;;
67715;SDS011;54508;43.238;25.306;2022-11-20T07:46:23;8.37;;;6.40;;
67715;SDS011;54508;43.238;25.306;2022-11-20T07:48:49;12.55;;;6.70;;
67715;SDS011;54508;43.238;25.306;2022-11-20T07:51:14;13.17;;;6.53;;
67715;SDS011;54508;43.238;25.306;2022-11-20T07:53:39;11.83;;;7.13;;
67715;SDS011;54508;43.238;25.306;2022-11-20T07:56:05;11.37;;;7.47;;
67715;SDS011;54508;43.238;25.306;2022-11-20T07:58:31;11.52;;;6.90;;
67715;SDS011;54508;43.238;25.306;2022-11-20T08:00:58;12.00;;;7.30;;
67715;SDS011;54508;43.238;25.306;2022-11-20T08:03:28;11.63;;;7.22;;
67715;SDS011;54508;43.238;25.306;2022-11-20T08:05:53;8.97;;;6.73;;
67715;SDS011;54508;43.238;25.306;2022-11-20T08:08:19;10.40;;;6.87;;
67715;SDS011;54508;43.238;25.306;2022-11-20T08:10:44;10.63;;;6.93;;
67715;SDS011;54508;43.238;25.306;2022-11-20T08:13:10;11.17;;;7.47;;
67715;SDS011;54508;43.238;25.306;2022-11-20T08:15:54;12.43;;;7.93;;
67715;SDS011;54508;43.238;25.306;2022-11-20T08:18:20;10.77;;;7.90;;
67715;SDS011;54508;43.238;25.306;2022-11-20T08:20:45;10.80;;;7.97;;
67715;SDS011;54508;43.238;25.306;2022-11-20T08:23:11;10.85;;;7.53;;
67715;SDS011;54508;43.238;25.306;2022-11-20T08:25:37;10.37;;;7.43;;
67715;SDS011;54508;43.238;25.306;2022-11-20T08:28:04;14.45;;;8.10;;
67715;SDS011;54508;43.238;25.306;2022-11-20T08:30:30;11.38;;;7.93;;
67715;SDS011;54508;43.238;25.306;2022-11-20T08:33:00;10.83;;;8.27;;
67715;SDS011;54508;43.238;25.306;2022-11-20T08:35:27;11.38;;;8.35;;
67715;SDS011;54508;43.238;25.306;2022-11-20T08:37:52;11.80;;;8.07;;
67715;SDS011;54508;43.238;25.306;2022-11-20T08:40:18;10.97;;;6.93;;
67715;SDS011;54508;43.238;25.306;2022-11-20T08:42:46;12.32;;;8.30;;
67715;SDS011;54508;43.238;25.306;2022-11-20T08:45:15;11.05;;;7.80;;
67715;SDS011;54508;43.238;25.306;2022-11-20T08:47:42;13.45;;;8.43;;
67715;SDS011;54508;43.238;25.306;2022-11-20T08:50:08;12.68;;;8.27;;
67715;SDS011;54508;43.238;25.306;2022-11-20T08:52:34;13.32;;;8.07;;
67715;SDS011;54508;43.238;25.306;2022-11-20T08:55:00;15.30;;;8.43;;
67715;SDS011;54508;43.238;25.306;2022-11-20T08:57:25;13.23;;;8.20;;
67715;SDS011;54508;43.238;25.306;2022-11-20T08:59:51;11.40;;;8.02;;
67715;SDS011;54508;43.238;25.306;2022-11-20T09:02:16;14.18;;;8.68;;
67715;SDS011;54508;43.238;25.306;2022-11-20T09:04:41;11.97;;;8.60;;
67715;SDS011;54508;43.238;25.306;2022-11-20T09:07:07;10.97;;;8.07;;
67715;SDS011;54508;43.238;25.306;2022-11-20T09:09:32;13.10;;;8.47;;
67715;SDS011;54508;43.238;25.306;2022-11-20T09:11:58;12.32;;;8.07;;
67715;SDS011;54508;43.238;25.306;2022-11-20T09:14:23;11.53;;;8.17;;
67715;SDS011;54508;43.238;25.306;2022-11-20T09:16:54;12.52;;;8.80;;
67715;SDS011;54508;43.238;25.306;2022-11-20T09:19:23;11.65;;;8.60;;
67715;SDS011;54508;43.238;25.306;2022-11-20T09:21:49;12.50;;;8.90;;
67715;SDS011;54508;43.238;25.306;2022-11-20T09:24:14;14.27;;;9.23;;
67715;SDS011;54508;43.238;25.306;2022-11-20T09:26:39;12.87;;;8.43;;
67715;SDS011;54508;43.238;25.306;2022-11-20T09:29:05;13.97;;;8.90;;
67715;SDS011;54508;43.238;25.306;2022-11-20T09:31:30;14.10;;;8.90;;
67715;SDS011;54508;43.238;25.306;2022-11-20T09:33:56;12.38;;;8.40;;
67715;SDS011;54508;43.238;25.306;2022-11-20T09:36:21;13.60;;;9.40;;
67715;SDS011;54508;43.238;25.306;2022-11-20T09:38:47;11.67;;;8.77;;
67715;SDS011;54508;43.238;25.306;2022-11-20T09:55:21;12.35;;;8.80;;
67715;SDS011;54508;43.238;25.306;2022-11-20T09:57:47;16.00;;;9.67;;
67715;SDS011;54508;43.238;25.306;2022-11-20T10:00:14;15.40;;;9.73;;
67715;SDS011;54508;43.238;25.306;2022-11-20T10:02:54;14.18;;;9.32;;
67715;SDS011;54508;43.238;25.306;2022-11-20T10:19:13;12.35;;;9.25;;
67715;SDS011;54508;43.238;25.306;2022-11-20T10:22:04;17.50;;;9.57;;
67715;SDS011;54508;43.238;25.306;2022-11-20T10:24:43;14.65;;;10.13;;
67715;SDS011;54508;43.238;25.306;2022-11-20T10:30:00;15.70;;;10.13;;
67715;SDS011;54508;43.238;25.306;2022-11-20T10:32:35;14.10;;;9.50;;
67715;SDS011;54508;43.238;25.306;2022-11-20T10:35:20;13.47;;;8.93;;
67715;SDS011;54508;43.238;25.306;2022-11-20T10:37:48;15.27;;;9.73;;
67715;SDS011;54508;43.238;25.306;2022-11-20T10:40:31;14.40;;;9.60;;
67715;SDS011;54508;43.238;25.306;2022-11-20T10:43:01;16.25;;;9.80;;
67715;SDS011;54508;43.238;25.306;2022-11-20T10:45:31;14.00;;;9.90;;
67715;SDS011;54508;43.238;25.306;2022-11-20T10:50:33;13.07;;;9.70;;
67715;SDS011;54508;43.238;25.306;2022-11-20T10:55:33;14.52;;;9.48;;
67715;SDS011;54508;43.238;25.306;2022-11-20T10:58:10;14.85;;;9.15;;
67715;SDS011;54508;43.238;25.306;2022-11-20T11:00:49;15.23;;;9.43;;
67715;SDS011;54508;43.238;25.306;2022-11-20T11:05:53;14.13;;;8.83;;
67715;SDS011;54508;43.238;25.306;2022-11-20T11:08:28;14.23;;;9.15;;
67715;SDS011;54508;43.238;25.306;2022-11-20T11:10:57;13.63;;;8.95;;
67715;SDS011;54508;43.238;25.306;2022-11-20T11:13:29;13.40;;;9.68;;
67715;SDS011;54508;43.238;25.306;2022-11-20T11:15:55;13.40;;;9.30;;
67715;SDS011;54508;43.238;25.306;2022-11-20T11:20:55;15.10;;;9.38;;
67715;SDS011;54508;43.238;25.306;2022-11-20T11:23:26;13.50;;;9.25;;
67715;SDS011;54508;43.238;25.306;2022-11-20T11:25:56;15.50;;;9.68;;
67715;SDS011;54508;43.238;25.306;2022-11-20T11:28:23;14.75;;;9.02;;
67715;SDS011;54508;43.238;25.306;2022-11-20T11:30:51;13.70;;;8.93;;
67715;SDS011;54508;43.238;25.306;2022-11-20T11:33:20;12.90;;;8.85;;
67715;SDS011;54508;43.238;25.306;2022-11-20T11:35:48;13.32;;;9.05;;
67715;SDS011;54508;43.238;25.306;2022-11-20T11:38:19;13.43;;;9.20;;
67715;SDS011;54508;43.238;25.306;2022-11-20T11:40:48;14.00;;;9.33;;
67715;SDS011;54508;43.238;25.306;2022-11-20T11:43:21;12.90;;;9.20;;
67715;SDS011;54508;43.238;25.306;2022-11-20T11:49:45;15.35;;;9.75;;
67715;SDS011;54508;43.238;25.306;2022-11-20T11:51:59;13.45;;;8.85;;
67715;SDS011;54508;43.238;25.306;2022-11-20T11:54:45;10.73;;;8.65;;
67715;SDS011;54508;43.238;25.306;2022-11-20T12:00:01;13.10;;;9.43;;
67715;SDS011;54508;43.238;25.306;2022-11-20T12:05:02;12.93;;;9.25;;
67715;SDS011;54508;43.238;25.306;2022-11-20T12:10:22;14.32;;;9.27;;
67715;SDS011;54508;43.238;25.306;2022-11-20T12:13:39;13.30;;;9.45;;
67715;SDS011;54508;43.238;25.306;2022-11-20T12:15:47;14.23;;;10.00;;
67715;SDS011;54508;43.238;25.306;2022-11-20T12:18:22;17.05;;;9.82;;
67715;SDS011;54508;43.238;25.306;2022-11-20T12:42:53;13.80;;;9.48;;
67715;SDS011;54508;43.238;25.306;2022-11-20T12:46:02;15.27;;;9.50;;
67715;SDS011;54508;43.238;25.306;2022-11-20T12:48:40;14.50;;;9.55;;
67715;SDS011;54508;43.238;25.306;2022-11-20T12:51:43;13.88;;;9.45;;
67715;SDS011;54508;43.238;25.306;2022-11-20T13:07:49;15.63;;;10.07;;
67715;SDS011;54508;43.238;25.306;2022-11-20T13:10:29;13.48;;;9.45;;
67715;SDS011;54508;43.238;25.306;2022-11-20T13:15:55;14.48;;;9.35;;
67715;SDS011;54508;43.238;25.306;2022-11-20T13:18:25;14.23;;;9.40;;
67715;SDS011;54508;43.238;25.306;2022-11-20T13:20:51;12.60;;;8.63;;
67715;SDS011;54508;43.238;25.306;2022-11-20T13:23:26;12.33;;;8.63;;
67715;SDS011;54508;43.238;25.306;2022-11-20T13:28:39;13.30;;;9.27;;
67715;SDS011;54508;43.238;25.306;2022-11-20T13:31:09;12.40;;;9.00;;
67715;SDS011;54508;43.238;25.306;2022-11-20T13:33:49;12.52;;;9.10;;
67715;SDS011;54508;43.238;25.306;2022-11-20T13:36:24;12.70;;;8.88;;
67715;SDS011;54508;43.238;25.306;2022-11-20T13:38:52;13.95;;;9.10;;
67715;SDS011;54508;43.238;25.306;2022-11-20T13:41:32;12.95;;;8.52;;
67715;SDS011;54508;43.238;25.306;2022-11-20T13:44:09;13.45;;;9.48;;
67715;SDS011;54508;43.238;25.306;2022-11-20T13:46:50;12.45;;;9.05;;
67715;SDS011;54508;43.238;25.306;2022-11-20T13:49:17;11.30;;;8.48;;
67715;SDS011;54508;43.238;25.306;2022-11-20T13:51:46;12.50;;;8.50;;
67715;SDS011;54508;43.238;25.306;2022-11-20T13:54:17;12.07;;;8.60;;
67715;SDS011;54508;43.238;25.306;2022-11-20T14:02:38;13.77;;;9.40;;
67715;SDS011;54508;43.238;25.306;2022-11-20T14:05:03;11.70;;;8.40;;
67715;SDS011;54508;43.238;25.306;2022-11-20T14:07:37;13.90;;;9.02;;
67715;SDS011;54508;43.238;25.306;2022-11-20T14:10:06;15.00;;;8.83;;
67715;SDS011;54508;43.238;25.306;2022-11-20T14:12:47;13.32;;;8.70;;
67715;SDS011;54508;43.238;25.306;2022-11-20T14:15:34;14.83;;;9.20;;
67715;SDS011;54508;43.238;25.306;2022-11-20T14:17:59;13.50;;;8.57;;
67715;SDS011;54508;43.238;25.306;2022-11-20T14:20:29;15.07;;;9.30;;
67715;SDS011;54508;43.238;25.306;2022-11-20T14:22:56;12.77;;;8.82;;
67715;SDS011;54508;43.238;25.306;2022-11-20T14:25:22;12.50;;;9.07;;
67715;SDS011;54508;43.238;25.306;2022-11-20T14:27:52;13.50;;;9.55;;
67715;SDS011;54508;43.238;25.306;2022-11-20T14:30:23;12.95;;;9.35;;
67715;SDS011;54508;43.238;25.306;2022-11-20T14:33:10;12.02;;;9.02;;
67715;SDS011;54508;43.238;25.306;2022-11-20T14:35:37;13.07;;;9.05;;
67715;SDS011;54508;43.238;25.306;2022-11-20T14:38:09;16.45;;;9.93;;
67715;SDS011;54508;43.238;25.306;2022-11-20T14:40:37;14.45;;;9.57;;
67715;SDS011;54508;43.238;25.306;2022-11-20T14:43:23;14.03;;;9.93;;
67715;SDS011;54508;43.238;25.306;2022-11-20T14:45:56;13.93;;;9.82;;
67715;SDS011;54508;43.238;25.306;2022-11-20T14:48:26;17.27;;;10.27;;
67715;SDS011;54508;43.238;25.306;2022-11-20T14:50:58;12.60;;;9.48;;
67715;SDS011;54508;43.238;25.306;2022-11-20T14:53:24;14.93;;;10.20;;
67715;SDS011;54508;43.238;25.306;2022-11-20T14:55:57;14.45;;;10.32;;
67715;SDS011;54508;43.238;25.306;2022-11-20T14:58:31;14.77;;;10.75;;
67715;SDS011;54508;43.238;25.306;2022-11-20T15:01:05;15.70;;;10.65;;
67715;SDS011;54508;43.238;25.306;2022-11-20T15:06:01;15.75;;;11.10;;
67715;SDS011;54508;43.238;25.306;2022-11-20T15:08:27;18.88;;;12.18;;
67715;SDS011;54508;43.238;25.306;2022-11-20T15:10:53;21.73;;;13.03;;
67715;SDS011;54508;43.238;25.306;2022-11-20T15:15:50;20.85;;;13.05;;
67715;SDS011;54508;43.238;25.306;2022-11-20T15:18:30;22.48;;;13.98;;
67715;SDS011;54508;43.238;25.306;2022-11-20T15:20:58;23.02;;;13.82;;
67715;SDS011;54508;43.238;25.306;2022-11-20T15:23:26;23.48;;;14.38;;
67715;SDS011;54508;43.238;25.306;2022-11-20T15:25:52;21.60;;;13.88;;
67715;SDS011;54508;43.238;25.306;2022-11-20T15:28:19;21.63;;;13.53;;
67715;SDS011;54508;43.238;25.306;2022-11-20T15:30:52;23.55;;;14.10;;
67715;SDS011;54508;43.238;25.306;2022-11-20T15:33:17;19.43;;;13.33;;
67715;SDS011;54508;43.238;25.306;2022-11-20T15:35:43;21.23;;;13.95;;
67715;SDS011;54508;43.238;25.306;2022-11-20T15:38:09;21.48;;;14.07;;
67715;SDS011;54508;43.238;25.306;2022-11-20T15:40:35;20.53;;;14.07;;
67715;SDS011;54508;43.238;25.306;2022-11-20T15:43:00;19.63;;;13.20;;
67715;SDS011;54508;43.238;25.306;2022-11-20T15:45:51;26.23;;;14.73;;
67715;SDS011;54508;43.238;25.306;2022-11-20T15:50:54;22.75;;;13.88;;
67715;SDS011;54508;43.238;25.306;2022-11-20T15:53:23;20.83;;;13.63;;
67715;SDS011;54508;43.238;25.306;2022-11-20T15:55:48;21.40;;;13.27;;
67715;SDS011;54508;43.238;25.306;2022-11-20T15:58:14;19.43;;;12.83;;
67715;SDS011;54508;43.238;25.306;2022-11-20T16:00:41;20.38;;;13.93;;
67715;SDS011;54508;43.238;25.306;2022-11-20T16:03:08;21.88;;;14.07;;
67715;SDS011;54508;43.238;25.306;2022-11-20T16:05:35;21.05;;;13.95;;
67715;SDS011;54508;43.238;25.306;2022-11-20T16:08:01;22.90;;;14.20;;
67715;SDS011;54508;43.238;25.306;2022-11-20T16:10:26;20.73;;;13.05;;
67715;SDS011;54508;43.238;25.306;2022-11-20T16:12:52;22.43;;;13.13;;
67715;SDS011;54508;43.238;25.306;2022-11-20T16:15:36;20.33;;;12.82;;
67715;SDS011;54508;43.238;25.306;2022-11-20T16:18:11;21.60;;;13.07;;
67715;SDS011;54508;43.238;25.306;2022-11-20T16:20:38;18.88;;;13.07;;
67715;SDS011;54508;43.238;25.306;2022-11-20T16:23:04;21.88;;;12.95;;
67715;SDS011;54508;43.238;25.306;2022-11-20T16:25:30;20.80;;;13.35;;
67715;SDS011;54508;43.238;25.306;2022-11-20T16:27:55;19.75;;;12.50;;
67715;SDS011;54508;43.238;25.306;2022-11-20T16:30:20;19.67;;;12.73;;
67715;SDS011;54508;43.238;25.306;2022-11-20T16:32:46;18.60;;;12.30;;